createdAt,value
2016-04-03T00:00:50.606Z,0
2016-04-03T00:01:50.592Z,0
2016-04-03T00:02:50.626Z,0
2016-04-03T00:03:50.598Z,0
2016-04-03T00:04:50.616Z,0
2016-04-03T00:05:50.634Z,0
2016-04-03T00:06:50.622Z,0
2016-04-03T00:07:50.640Z,0
2016-04-03T00:08:50.642Z,0
2016-04-03T00:09:50.645Z,0
2016-04-03T00:10:50.647Z,0
2016-04-03T00:11:50.666Z,0
2016-04-03T00:12:50.669Z,0
2016-04-03T00:13:50.688Z,0
2016-04-03T00:14:50.690Z,0
2016-04-03T00:15:50.708Z,0
2016-04-03T00:16:50.696Z,0
2016-04-03T00:17:50.714Z,0
2016-04-03T00:18:50.702Z,0
2016-04-03T00:19:50.704Z,0
2016-04-03T00:20:50.722Z,0
2016-04-03T00:21:50.725Z,0
2016-04-03T00:22:50.727Z,0
2016-04-03T00:23:50.730Z,0
2016-04-03T00:24:50.764Z,0
2016-04-03T00:25:50.752Z,0
2016-04-03T00:26:50.754Z,0
2016-04-03T00:27:50.757Z,0
2016-04-03T00:28:50.760Z,0
2016-04-03T00:29:50.793Z,0
2016-04-03T00:30:50.765Z,0
2016-04-03T00:31:50.658Z,0
2016-04-03T00:32:50.801Z,0
2016-04-03T00:33:50.648Z,0
2016-04-03T00:34:50.822Z,0
2016-04-03T00:35:50.809Z,0
2016-04-03T00:36:50.811Z,0
2016-04-03T00:37:50.814Z,0
2016-04-03T00:38:50.833Z,0
2016-04-03T00:39:50.867Z,0
2016-04-03T00:40:50.854Z,0
2016-04-03T00:41:50.842Z,0
2016-04-03T00:42:50.859Z,0
2016-04-03T00:43:50.862Z,0
2016-04-03T00:44:50.896Z,0
2016-04-03T00:45:50.867Z,0
2016-04-03T00:46:50.917Z,0
2016-04-03T00:47:50.888Z,0
2016-04-03T00:48:50.766Z,0
2016-04-03T00:49:50.909Z,0
2016-04-03T00:50:50.912Z,0
2016-04-03T00:51:50.946Z,0
2016-04-03T00:52:50.933Z,0
2016-04-03T00:53:50.952Z,0
2016-04-03T00:54:50.954Z,0
2016-04-03T00:55:50.941Z,0
2016-04-03T00:56:50.943Z,0
2016-04-03T00:57:50.962Z,0
2016-04-03T00:58:50.965Z,0
2016-04-03T00:59:50.967Z,0
2016-04-03T01:00:50.971Z,0
2016-04-03T01:01:50.989Z,0
2016-04-03T01:02:50.992Z,0
2016-04-03T01:03:50.995Z,0
2016-04-03T01:04:50.998Z,0
2016-04-03T01:05:51.015Z,0
2016-04-03T01:06:51.018Z,0
2016-04-03T01:07:50.718Z,0
2016-04-03T01:08:51.014Z,0
2016-04-03T01:09:51.032Z,0
2016-04-03T01:10:51.051Z,0
2016-04-03T01:11:51.054Z,0
2016-04-03T01:12:51.056Z,0
2016-04-03T01:13:51.059Z,0
2016-04-03T01:14:51.076Z,0
2016-04-03T01:15:51.080Z,0
2016-04-03T01:16:51.071Z,0
2016-04-03T01:17:51.074Z,0
2016-04-03T01:18:51.092Z,0
2016-04-03T01:19:51.094Z,0
2016-04-03T01:20:51.113Z,0
2016-04-03T01:21:51.115Z,0
2016-04-03T01:22:51.118Z,0
2016-04-03T01:23:51.121Z,0
2016-04-03T01:24:51.124Z,0
2016-04-03T01:25:51.142Z,0
2016-04-03T01:26:51.145Z,0
2016-04-03T01:27:51.147Z,0
2016-04-03T01:28:51.150Z,0
2016-04-03T01:29:51.168Z,0
2016-04-03T01:30:51.187Z,0
2016-04-03T01:31:51.174Z,0
2016-04-03T01:32:51.176Z,0
2016-04-03T01:33:51.179Z,0
2016-04-03T01:34:51.197Z,0
2016-04-03T01:35:51.200Z,0
2016-04-03T01:36:51.218Z,0
2016-04-03T01:37:51.220Z,0
2016-04-03T01:38:51.224Z,0
2016-04-03T01:39:51.242Z,0
2016-04-03T01:40:51.229Z,0
2016-04-03T01:41:51.263Z,0
2016-04-03T01:42:51.250Z,0
2016-04-03T01:43:51.253Z,0
2016-04-03T01:44:51.489Z,0
2016-04-03T01:45:51.258Z,0
2016-04-03T01:46:51.277Z,0
2016-04-03T01:47:51.280Z,0
2016-04-03T01:48:51.283Z,0
2016-04-03T01:49:51.285Z,0
2016-04-03T01:50:51.303Z,0
2016-04-03T01:51:51.290Z,0
2016-04-03T01:52:51.324Z,0
2016-04-03T01:53:51.311Z,0
2016-04-03T01:54:51.189Z,0
2016-04-03T01:55:51.316Z,0
2016-04-03T01:56:51.350Z,0
2016-04-03T01:57:51.321Z,0
2016-04-03T01:58:51.371Z,0
2016-04-03T01:59:51.343Z,0
2016-04-03T02:00:51.346Z,0
2016-04-03T02:01:51.364Z,0
2016-04-03T02:02:51.382Z,0
2016-04-03T02:03:51.369Z,0
2016-04-03T02:04:51.371Z,0
2016-04-03T02:05:51.390Z,0
2016-04-03T02:06:51.393Z,0
2016-04-03T02:07:51.400Z,0
2016-04-03T02:08:51.403Z,0
2016-04-03T02:09:51.437Z,0
2016-04-03T02:10:51.425Z,0
2016-04-03T02:11:51.443Z,0
2016-04-03T02:12:51.430Z,0
2016-04-03T02:13:51.448Z,0
2016-04-03T02:14:51.435Z,0
2016-04-03T02:15:51.469Z,0
2016-04-03T02:16:51.441Z,0
2016-04-03T02:17:51.458Z,0
2016-04-03T02:18:51.477Z,0
2016-04-03T02:19:51.494Z,0
2016-04-03T02:20:51.466Z,0
2016-04-03T02:21:51.516Z,0
2016-04-03T02:22:51.488Z,0
2016-04-03T02:23:51.522Z,0
2016-04-03T02:24:51.524Z,0
2016-04-03T02:25:51.511Z,0
2016-04-03T02:26:51.545Z,0
2016-04-03T02:27:51.516Z,0
2016-04-03T02:28:51.551Z,0
2016-04-03T02:29:51.397Z,0
2016-04-03T02:30:51.540Z,0
2016-04-03T02:31:51.574Z,0
2016-04-03T02:32:51.545Z,0
2016-04-03T02:33:51.579Z,0
2016-04-03T02:34:51.582Z,0
2016-04-03T02:35:51.570Z,0
2016-04-03T02:36:51.604Z,0
2016-04-03T02:37:51.590Z,0
2016-04-03T02:38:51.640Z,0
2016-04-03T02:39:51.595Z,0
2016-04-03T02:40:51.598Z,0
2016-04-03T02:41:51.648Z,0
2016-04-03T02:42:51.619Z,0
2016-04-03T02:43:51.653Z,0
2016-04-03T02:44:51.625Z,0
2016-04-03T02:45:51.644Z,0
2016-04-03T02:46:51.662Z,0
2016-04-03T02:47:51.649Z,0
2016-04-03T02:48:51.683Z,0
2016-04-03T02:49:51.669Z,0
2016-04-03T02:50:51.657Z,0
2016-04-03T02:51:51.690Z,0
2016-04-03T02:52:51.693Z,0
2016-04-03T02:53:51.696Z,0
2016-04-03T02:54:51.714Z,0
2016-04-03T02:55:51.717Z,0
2016-04-03T02:56:51.704Z,0
2016-04-03T02:57:51.738Z,0
2016-04-03T02:58:51.741Z,0
2016-04-03T02:59:51.728Z,0
2016-04-03T03:00:51.730Z,0
2016-04-03T03:01:51.749Z,0
2016-04-03T03:02:51.751Z,0
2016-04-03T03:03:51.754Z,0
2016-04-03T03:04:51.023Z,0
2016-04-03T03:05:51.775Z,0
2016-04-03T03:06:51.762Z,0
2016-04-03T03:07:51.780Z,0
2016-04-03T03:08:51.814Z,0
2016-04-03T03:09:51.786Z,0
2016-04-03T03:10:51.789Z,0
2016-04-03T03:11:51.807Z,0
2016-04-03T03:12:51.825Z,0
2016-04-03T03:13:51.828Z,0
2016-04-03T03:14:51.846Z,0
2016-04-03T03:15:51.833Z,0
2016-04-03T03:16:51.836Z,0
2016-04-03T03:17:51.838Z,0
2016-04-03T03:18:51.889Z,0
2016-04-03T03:19:51.844Z,0
2016-04-03T03:20:51.863Z,0
2016-04-03T03:21:51.881Z,0
2016-04-03T03:22:51.883Z,0
2016-04-03T03:23:51.886Z,0
2016-04-03T03:24:51.904Z,0
2016-04-03T03:25:51.891Z,0
2016-04-03T03:26:51.910Z,0
2016-04-03T03:27:51.912Z,0
2016-04-03T03:28:51.774Z,0
2016-04-03T03:29:51.918Z,0
2016-04-03T03:30:51.951Z,0
2016-04-03T03:31:51.924Z,0
2016-04-03T03:32:51.957Z,0
2016-04-03T03:33:51.929Z,0
2016-04-03T03:34:51.963Z,0
2016-04-03T03:35:51.949Z,0
2016-04-03T03:36:51.952Z,0
2016-04-03T03:37:51.970Z,0
2016-04-03T03:38:51.989Z,0
2016-04-03T03:39:51.976Z,0
2016-04-03T03:40:51.994Z,0
2016-04-03T03:41:51.997Z,0
2016-04-03T03:42:52.030Z,0
2016-04-03T03:43:52.002Z,0
2016-04-03T03:44:52.005Z,0
2016-04-03T03:45:52.023Z,0
2016-04-03T03:46:52.042Z,0
2016-04-03T03:47:52.028Z,0
2016-04-03T03:48:52.016Z,0
2016-04-03T03:49:52.033Z,0
2016-04-03T03:50:52.052Z,0
2016-04-03T03:51:52.071Z,0
2016-04-03T03:52:52.073Z,0
2016-04-03T03:53:52.076Z,0
2016-04-03T03:54:52.063Z,0
2016-04-03T03:55:52.082Z,0
2016-04-03T03:56:52.116Z,0
2016-04-03T03:57:52.088Z,0
2016-04-03T03:58:52.136Z,0
2016-04-03T03:59:52.108Z,0
2016-04-03T04:00:52.157Z,0
2016-04-03T04:01:52.129Z,0
2016-04-03T04:02:52.116Z,0
2016-04-03T04:03:52.165Z,0
2016-04-03T04:04:52.168Z,0
2016-04-03T04:05:52.154Z,0
2016-04-03T04:06:52.143Z,0
2016-04-03T04:07:52.145Z,0
2016-04-03T04:08:52.179Z,0
2016-04-03T04:09:52.166Z,0
2016-04-03T04:10:52.200Z,0
2016-04-03T04:11:52.171Z,0
2016-04-03T04:12:52.189Z,0
2016-04-03T04:13:52.192Z,0
2016-04-03T04:14:52.226Z,0
2016-04-03T04:15:52.197Z,0
2016-04-03T04:16:52.231Z,0
2016-04-03T04:17:52.218Z,0
2016-04-03T04:18:52.221Z,0
2016-04-03T04:19:52.224Z,0
2016-04-03T04:20:52.258Z,0
2016-04-03T04:21:52.245Z,0
2016-04-03T04:22:52.248Z,0
2016-04-03T04:23:52.266Z,0
2016-04-03T04:24:52.253Z,0
2016-04-03T04:25:52.287Z,0
2016-04-03T04:26:52.274Z,0
2016-04-03T04:27:52.277Z,0
2016-04-03T04:28:52.263Z,0
2016-04-03T04:29:52.283Z,0
2016-04-03T04:30:52.285Z,0
2016-04-03T04:31:52.304Z,0
2016-04-03T04:32:52.307Z,0
2016-04-03T04:33:52.309Z,0
2016-04-03T04:34:52.312Z,0
2016-04-03T04:35:52.329Z,0
2016-04-03T04:36:52.332Z,0
2016-04-03T04:37:52.351Z,0
2016-04-03T04:38:52.337Z,0
2016-04-03T04:39:52.356Z,0
2016-04-03T04:40:52.358Z,0
2016-04-03T04:41:52.392Z,0
2016-04-03T04:42:52.379Z,0
2016-04-03T04:43:52.414Z,0
2016-04-03T04:44:52.385Z,0
2016-04-03T04:45:52.403Z,0
2016-04-03T04:46:52.390Z,0
2016-04-03T04:47:52.392Z,0
2016-04-03T04:48:52.411Z,0
2016-04-03T04:49:52.414Z,0
2016-04-03T04:50:52.417Z,0
2016-04-03T04:51:52.419Z,0
2016-04-03T04:52:52.453Z,0
2016-04-03T04:53:52.455Z,0
2016-04-03T04:54:52.443Z,0
2016-04-03T04:55:52.446Z,0
2016-04-03T04:56:52.448Z,0
2016-04-03T04:57:52.467Z,0
2016-04-03T04:58:52.469Z,0
2016-04-03T04:59:52.472Z,0
2016-04-03T05:00:52.475Z,0
2016-04-03T05:01:52.477Z,0
2016-04-03T05:02:52.496Z,0
2016-04-03T05:03:52.498Z,0
2016-04-03T05:04:52.501Z,0
2016-04-03T05:05:52.520Z,0
2016-04-03T05:06:52.523Z,0
2016-04-03T05:07:52.619Z,0
2016-04-03T05:08:52.528Z,0
2016-04-03T05:09:52.562Z,0
2016-04-03T05:10:52.548Z,0
2016-04-03T05:11:52.536Z,0
2016-04-03T05:12:52.570Z,0
2016-04-03T05:13:52.556Z,0
2016-04-03T05:14:52.579Z,0
2016-04-03T05:15:52.540Z,0
2016-04-03T05:16:52.562Z,0
2016-04-03T05:17:52.553Z,0
2016-04-03T05:18:52.531Z,0
2016-04-03T05:19:52.529Z,0
2016-04-03T05:20:52.543Z,0
2016-04-03T05:21:52.574Z,0
2016-04-03T05:22:52.556Z,0
2016-04-03T05:23:52.540Z,0
2016-04-03T05:24:52.557Z,0
2016-04-03T05:25:52.574Z,0
2016-04-03T05:26:52.575Z,5
2016-04-03T05:27:52.592Z,5
2016-04-03T05:28:52.578Z,5
2016-04-03T05:29:52.627Z,5
2016-04-03T05:30:52.597Z,5
2016-04-03T05:31:52.615Z,5
2016-04-03T05:32:52.587Z,5
2016-04-03T05:33:52.589Z,5
2016-04-03T05:34:52.622Z,5
2016-04-03T05:35:52.625Z,5
2016-04-03T05:36:52.627Z,5
2016-04-03T05:37:52.629Z,5
2016-04-03T05:38:52.616Z,5
2016-04-03T05:39:52.634Z,5
2016-04-03T05:40:52.699Z,5
2016-04-03T05:41:52.656Z,5
2016-04-03T05:42:52.673Z,5
2016-04-03T05:43:52.661Z,5
2016-04-03T05:44:52.678Z,5
2016-04-03T05:45:52.681Z,5
2016-04-03T05:46:52.669Z,5
2016-04-03T05:47:52.671Z,5
2016-04-03T05:48:52.689Z,10
2016-04-03T05:49:52.723Z,10
2016-04-03T05:50:52.726Z,10
2016-04-03T05:51:52.713Z,10
2016-04-03T05:52:52.731Z,10
2016-04-03T05:53:52.719Z,10
2016-04-03T05:54:52.737Z,10
2016-04-03T05:55:52.724Z,10
2016-04-03T05:56:52.742Z,10
2016-04-03T05:57:52.761Z,10
2016-04-03T05:58:52.764Z,10
2016-04-03T05:59:52.782Z,10
2016-04-03T06:00:52.785Z,10
2016-04-03T06:01:52.787Z,10
2016-04-03T06:02:52.771Z,10
2016-04-03T06:03:52.774Z,10
2016-04-03T06:04:52.777Z,10
2016-04-03T06:05:52.811Z,10
2016-04-03T06:06:52.798Z,10
2016-04-03T06:07:52.816Z,10
2016-04-03T06:08:52.804Z,10
2016-04-03T06:09:52.821Z,10
2016-04-03T06:10:52.809Z,10
2016-04-03T06:11:52.843Z,10
2016-04-03T06:12:52.829Z,10
2016-04-03T06:13:52.864Z,10
2016-04-03T06:14:52.851Z,10
2016-04-03T06:15:52.853Z,10
2016-04-03T06:16:52.872Z,10
2016-04-03T06:17:52.859Z,10
2016-04-03T06:18:52.877Z,10
2016-04-03T06:19:52.864Z,10
2016-04-03T06:20:52.883Z,10
2016-04-03T06:21:52.886Z,10
2016-04-03T06:22:52.888Z,10
2016-04-03T06:23:52.906Z,10
2016-04-03T06:24:52.909Z,10
2016-04-03T06:25:52.928Z,10
2016-04-03T06:26:52.914Z,10
2016-04-03T06:27:52.933Z,15
2016-04-03T06:28:52.936Z,15
2016-04-03T06:29:52.953Z,15
2016-04-03T06:30:52.941Z,15
2016-04-03T06:31:52.944Z,15
2016-04-03T06:32:52.977Z,15
2016-04-03T06:33:52.964Z,15
2016-04-03T06:34:52.967Z,15
2016-04-03T06:35:52.985Z,15
2016-04-03T06:36:52.972Z,15
2016-04-03T06:37:52.975Z,15
2016-04-03T06:38:52.993Z,15
2016-04-03T06:39:52.840Z,15
2016-04-03T06:40:53.015Z,15
2016-04-03T06:41:53.017Z,15
2016-04-03T06:42:53.051Z,15
2016-04-03T06:43:53.023Z,15
2016-04-03T06:44:53.040Z,15
2016-04-03T06:45:53.028Z,15
2016-04-03T06:46:53.046Z,15
2016-04-03T06:47:53.065Z,15
2016-04-03T06:48:53.052Z,15
2016-04-03T06:49:53.070Z,15
2016-04-03T06:50:53.073Z,15
2016-04-03T06:51:53.075Z,15
2016-04-03T06:52:53.094Z,15
2016-04-03T06:53:53.097Z,15
2016-04-03T06:54:53.099Z,15
2016-04-03T06:55:53.102Z,15
2016-04-03T06:56:53.136Z,15
2016-04-03T06:57:53.123Z,15
2016-04-03T06:58:53.111Z,15
2016-04-03T06:59:53.128Z,15
2016-04-03T07:00:53.131Z,15
2016-04-03T07:01:53.133Z,15
2016-04-03T07:02:53.136Z,15
2016-04-03T07:03:53.155Z,15
2016-04-03T07:04:53.157Z,15
2016-04-03T07:05:53.160Z,15
2016-04-03T07:06:53.163Z,15
2016-04-03T07:07:53.180Z,15
2016-04-03T07:08:53.183Z,15
2016-04-03T07:09:53.202Z,15
2016-04-03T07:10:53.188Z,15
2016-04-03T07:11:53.208Z,15
2016-04-03T07:12:53.210Z,15
2016-04-03T07:13:53.213Z,15
2016-04-03T07:14:53.216Z,15
2016-04-03T07:15:53.219Z,15
2016-04-03T07:16:53.237Z,15
2016-04-03T07:17:53.255Z,20
2016-04-03T07:18:53.243Z,20
2016-04-03T07:19:53.245Z,20
2016-04-03T07:20:53.263Z,20
2016-04-03T07:21:53.251Z,20
2016-04-03T07:22:53.284Z,20
2016-04-03T07:23:53.271Z,20
2016-04-03T07:24:53.289Z,20
2016-04-03T07:25:53.292Z,20
2016-04-03T07:26:53.295Z,20
2016-04-03T07:27:53.297Z,20
2016-04-03T07:28:53.316Z,20
2016-04-03T07:29:53.319Z,20
2016-04-03T07:30:53.321Z,20
2016-04-03T07:31:53.542Z,25
2016-04-03T07:32:53.420Z,25
2016-04-03T07:33:53.564Z,25
2016-04-03T07:34:53.348Z,25
2016-04-03T07:35:53.367Z,25
2016-04-03T07:36:53.353Z,25
2016-04-03T07:37:53.387Z,25
2016-04-03T07:38:53.390Z,25
2016-04-03T07:39:53.377Z,30
2016-04-03T07:40:53.395Z,30
2016-04-03T07:41:53.397Z,30
2016-04-03T07:42:53.400Z,30
2016-04-03T07:43:53.403Z,30
2016-04-03T07:44:53.421Z,25
2016-04-03T07:45:53.424Z,25
2016-04-03T07:46:53.427Z,25
2016-04-03T07:47:53.445Z,20
2016-04-03T07:48:53.432Z,20
2016-04-03T07:49:53.840Z,20
2016-04-03T07:50:53.437Z,25
2016-04-03T07:51:52.721Z,25
2016-04-03T07:52:53.443Z,25
2016-04-03T07:53:53.321Z,25
2016-04-03T07:54:53.464Z,25
2016-04-03T07:55:53.467Z,25
2016-04-03T07:56:53.485Z,25
2016-04-03T07:57:53.487Z,25
2016-04-03T07:58:53.506Z,25
2016-04-03T07:59:53.509Z,25
2016-04-03T08:00:53.527Z,30
2016-04-03T08:01:53.514Z,30
2016-04-03T08:02:53.532Z,35
2016-04-03T08:03:53.536Z,30
2016-04-03T08:04:53.538Z,30
2016-04-03T08:05:53.541Z,35
2016-04-03T08:06:53.559Z,35
2016-04-03T08:07:53.546Z,30
2016-04-03T08:08:53.564Z,30
2016-04-03T08:09:53.582Z,30
2016-04-03T08:10:53.585Z,30
2016-04-03T08:11:53.572Z,30
2016-04-03T08:12:53.591Z,30
2016-04-03T08:13:53.577Z,35
2016-04-03T08:14:53.611Z,35
2016-04-03T08:15:53.599Z,35
2016-04-03T08:16:53.616Z,35
2016-04-03T08:17:53.463Z,35
2016-04-03T08:18:53.637Z,35
2016-04-03T08:19:53.624Z,35
2016-04-03T08:20:53.643Z,35
2016-04-03T08:21:53.645Z,35
2016-04-03T08:22:53.665Z,35
2016-04-03T08:23:53.651Z,35
2016-04-03T08:24:53.670Z,35
2016-04-03T08:25:53.657Z,35
2016-04-03T08:26:53.691Z,35
2016-04-03T08:27:53.678Z,35
2016-04-03T08:28:53.681Z,35
2016-04-03T08:29:53.699Z,35
2016-04-03T08:30:53.701Z,35
2016-04-03T08:31:53.704Z,35
2016-04-03T08:32:53.707Z,35
2016-04-03T08:33:53.725Z,40
2016-04-03T08:34:53.744Z,40
2016-04-03T08:35:53.731Z,40
2016-04-03T08:36:53.749Z,40
2016-04-03T08:37:53.752Z,40
2016-04-03T08:38:53.754Z,40
2016-04-03T08:39:53.772Z,40
2016-04-03T08:40:53.791Z,40
2016-04-03T08:41:53.777Z,40
2016-04-03T08:42:53.796Z,40
2016-04-03T08:43:53.783Z,40
2016-04-03T08:44:53.802Z,40
2016-04-03T08:45:53.835Z,40
2016-04-03T08:46:53.822Z,40
2016-04-03T08:47:53.809Z,45
2016-04-03T08:48:53.827Z,45
2016-04-03T08:49:53.846Z,45
2016-04-03T08:50:53.832Z,45
2016-04-03T08:51:53.851Z,45
2016-04-03T08:52:53.838Z,45
2016-04-03T08:53:53.856Z,45
2016-04-03T08:54:53.875Z,45
2016-04-03T08:55:53.878Z,45
2016-04-03T08:56:53.880Z,50
2016-04-03T08:57:53.884Z,50
2016-04-03T08:58:53.901Z,50
2016-04-03T08:59:53.889Z,50
2016-04-03T09:00:53.922Z,50
2016-04-03T09:01:53.909Z,50
2016-04-03T09:02:53.912Z,45
2016-04-03T09:03:53.914Z,50
2016-04-03T09:04:53.933Z,45
2016-04-03T09:05:53.936Z,50
2016-04-03T09:06:53.955Z,50
2016-04-03T09:07:53.876Z,50
2016-04-03T09:08:53.982Z,50
2016-04-03T09:09:53.969Z,45
2016-04-03T09:10:53.988Z,45
2016-04-03T09:11:53.990Z,45
2016-04-03T09:12:54.009Z,45
2016-04-03T09:13:53.995Z,45
2016-04-03T09:14:54.014Z,45
2016-04-03T09:15:54.017Z,55
2016-04-03T09:16:54.020Z,55
2016-04-03T09:17:54.007Z,55
2016-04-03T09:18:54.025Z,55
2016-04-03T09:19:53.934Z,55
2016-04-03T09:20:54.046Z,55
2016-04-03T09:21:54.048Z,60
2016-04-03T09:22:54.083Z,60
2016-04-03T09:23:54.069Z,65
2016-04-03T09:24:54.088Z,65
2016-04-03T09:25:54.090Z,65
2016-04-03T09:26:54.093Z,65
2016-04-03T09:27:54.096Z,65
2016-04-03T09:28:54.114Z,65
2016-04-03T09:29:54.117Z,65
2016-04-03T09:30:54.135Z,60
2016-04-03T09:31:54.122Z,60
2016-04-03T09:32:54.140Z,60
2016-04-03T09:33:54.144Z,65
2016-04-03T09:34:54.130Z,70
2016-04-03T09:35:54.149Z,70
2016-04-03T09:36:54.151Z,75
2016-04-03T09:37:54.187Z,75
2016-04-03T09:38:54.174Z,70
2016-04-03T09:39:54.208Z,70
2016-04-03T09:40:54.179Z,70
2016-04-03T09:41:54.198Z,65
2016-04-03T09:42:54.184Z,65
2016-04-03T09:43:54.219Z,65
2016-04-03T09:44:54.206Z,60
2016-04-03T09:45:54.209Z,60
2016-04-03T09:46:54.227Z,60
2016-04-03T09:47:54.230Z,65
2016-04-03T09:48:54.233Z,65
2016-04-03T09:49:54.266Z,65
2016-04-03T09:50:54.253Z,65
2016-04-03T09:51:54.272Z,70
2016-04-03T09:52:54.275Z,65
2016-04-03T09:53:54.278Z,65
2016-04-03T09:54:54.295Z,70
2016-04-03T09:55:54.126Z,70
2016-04-03T09:56:54.300Z,70
2016-04-03T09:57:54.319Z,70
2016-04-03T09:58:54.305Z,70
2016-04-03T09:59:54.308Z,70
2016-04-03T10:00:54.327Z,75
2016-04-03T10:01:54.330Z,75
2016-04-03T10:02:54.363Z,75
2016-04-03T10:03:54.192Z,75
2016-04-03T10:04:54.117Z,70
2016-04-03T10:05:54.462Z,75
2016-04-03T10:06:54.374Z,65
2016-04-03T10:07:54.393Z,75
2016-04-03T10:08:54.395Z,80
2016-04-03T10:09:54.414Z,80
2016-04-03T10:10:54.400Z,80
2016-04-03T10:11:54.420Z,85
2016-04-03T10:12:54.422Z,85
2016-04-03T10:13:54.425Z,85
2016-04-03T10:14:54.443Z,75
2016-04-03T10:15:54.430Z,70
2016-04-03T10:16:54.448Z,70
2016-04-03T10:17:54.466Z,70
2016-04-03T10:18:54.453Z,70
2016-04-03T10:19:54.534Z,75
2016-04-03T10:20:54.490Z,75
2016-04-03T10:21:54.477Z,70
2016-04-03T10:22:54.480Z,85
2016-04-03T10:23:54.514Z,85
2016-04-03T10:24:54.517Z,80
2016-04-03T10:25:54.535Z,80
2016-04-03T10:26:54.553Z,75
2016-04-03T10:27:54.524Z,80
2016-04-03T10:28:54.543Z,85
2016-04-03T10:29:54.546Z,85
2016-04-03T10:30:54.564Z,90
2016-04-03T10:31:54.567Z,95
2016-04-03T10:32:54.569Z,90
2016-04-03T10:33:54.588Z,90
2016-04-03T10:34:54.590Z,90
2016-04-03T10:35:54.640Z,85
2016-04-03T10:36:54.611Z,75
2016-04-03T10:37:54.614Z,75
2016-04-03T10:38:55.038Z,80
2016-04-03T10:39:54.620Z,80
2016-04-03T10:40:54.654Z,80
2016-04-03T10:41:54.640Z,75
2016-04-03T10:42:54.674Z,70
2016-04-03T10:43:54.677Z,65
2016-04-03T10:44:54.665Z,65
2016-04-03T10:45:54.698Z,60
2016-04-03T10:46:54.685Z,55
2016-04-03T10:47:54.688Z,50
2016-04-03T10:48:54.722Z,50
2016-04-03T10:49:54.709Z,55
2016-04-03T10:50:54.742Z,55
2016-04-03T10:51:54.730Z,60
2016-04-03T10:52:54.732Z,60
2016-04-03T10:53:54.766Z,65
2016-04-03T10:54:54.769Z,70
2016-04-03T10:55:54.756Z,75
2016-04-03T10:56:54.775Z,75
2016-04-03T10:57:54.761Z,75
2016-04-03T10:58:54.796Z,75
2016-04-03T10:59:54.798Z,70
2016-04-03T11:00:54.769Z,70
2016-04-03T11:01:54.803Z,85
2016-04-03T11:02:54.806Z,90
2016-04-03T11:03:54.824Z,90
2016-04-03T11:04:54.843Z,90
2016-04-03T11:05:54.830Z,75
2016-04-03T11:06:54.849Z,80
2016-04-03T11:07:54.843Z,75
2016-04-03T11:08:54.845Z,75
2016-04-03T11:09:54.879Z,75
2016-04-03T11:10:54.882Z,75
2016-04-03T11:11:54.885Z,80
2016-04-03T11:12:54.904Z,85
2016-04-03T11:13:54.734Z,85
2016-04-03T11:14:54.909Z,80
2016-04-03T11:15:54.927Z,80
2016-04-03T11:16:54.914Z,75
2016-04-03T11:17:54.947Z,75
2016-04-03T11:18:54.966Z,80
2016-04-03T11:19:54.938Z,80
2016-04-03T11:20:54.956Z,80
2016-04-03T11:21:54.958Z,80
2016-04-03T11:22:54.977Z,80
2016-04-03T11:23:55.011Z,80
2016-04-03T11:24:54.982Z,80
2016-04-03T11:25:54.985Z,80
2016-04-03T11:26:55.035Z,80
2016-04-03T11:27:55.006Z,80
2016-04-03T11:28:55.025Z,75
2016-04-03T11:29:55.058Z,70
2016-04-03T11:30:55.061Z,65
2016-04-03T11:31:55.049Z,60
2016-04-03T11:32:55.051Z,60
2016-04-03T11:33:55.054Z,55
2016-04-03T11:34:55.087Z,60
2016-04-03T11:35:55.074Z,60
2016-04-03T11:36:55.093Z,60
2016-04-03T11:37:55.112Z,60
2016-04-03T11:38:55.099Z,60
2016-04-03T11:39:55.163Z,60
2016-04-03T11:40:55.135Z,60
2016-04-03T11:41:55.153Z,60
2016-04-03T11:42:55.156Z,60
2016-04-03T11:43:55.142Z,65
2016-04-03T11:44:55.176Z,65
2016-04-03T11:45:55.148Z,65
2016-04-03T11:46:55.167Z,65
2016-04-03T11:47:55.201Z,65
2016-04-03T11:48:55.187Z,75
2016-04-03T11:49:55.190Z,70
2016-04-03T11:50:55.209Z,70
2016-04-03T11:51:55.212Z,70
2016-04-03T11:52:55.230Z,70
2016-04-03T11:53:55.264Z,70
2016-04-03T11:54:55.236Z,70
2016-04-03T11:55:55.253Z,70
2016-04-03T11:56:55.272Z,70
2016-04-03T11:57:55.258Z,65
2016-04-03T11:58:55.293Z,70
2016-04-03T11:59:55.279Z,70
2016-04-03T12:00:55.298Z,75
2016-04-03T12:01:55.333Z,75
2016-04-03T12:02:55.304Z,70
2016-04-03T12:03:55.306Z,70
2016-04-03T12:04:55.341Z,70
2016-04-03T12:05:55.344Z,70
2016-04-03T12:06:55.330Z,65
2016-04-03T12:07:55.363Z,65
2016-04-03T12:08:55.382Z,65
2016-04-03T12:09:55.354Z,65
2016-04-03T12:10:55.404Z,65
2016-04-03T12:11:55.391Z,65
2016-04-03T12:12:55.409Z,65
2016-04-03T12:13:55.427Z,65
2016-04-03T12:14:55.398Z,65
2016-04-03T12:15:55.417Z,65
2016-04-03T12:16:55.451Z,65
2016-04-03T12:17:55.454Z,65
2016-04-03T12:18:55.440Z,65
2016-04-03T12:19:55.474Z,65
2016-04-03T12:20:55.446Z,65
2016-04-03T12:21:55.495Z,65
2016-04-03T12:22:55.483Z,65
2016-04-03T12:23:55.469Z,65
2016-04-03T12:24:55.519Z,65
2016-04-03T12:25:55.491Z,65
2016-04-03T12:26:55.508Z,65
2016-04-03T12:27:55.543Z,70
2016-04-03T12:28:55.514Z,70
2016-04-03T12:29:55.533Z,65
2016-04-03T12:30:55.598Z,60
2016-04-03T12:31:55.553Z,65
2016-04-03T12:32:55.603Z,65
2016-04-03T12:33:55.575Z,65
2016-04-03T12:34:55.593Z,65
2016-04-03T12:35:55.597Z,70
2016-04-03T12:36:55.614Z,70
2016-04-03T12:37:55.616Z,70
2016-04-03T12:38:55.619Z,70
2016-04-03T12:39:55.637Z,70
2016-04-03T12:40:55.641Z,70
2016-04-03T12:41:55.628Z,65
2016-04-03T12:42:55.662Z,65
2016-04-03T12:43:55.649Z,65
2016-04-03T12:44:55.652Z,65
2016-04-03T12:45:55.716Z,65
2016-04-03T12:46:55.673Z,65
2016-04-03T12:47:55.691Z,65
2016-04-03T12:48:55.725Z,65
2016-04-03T12:49:55.696Z,65
2016-04-03T12:50:55.715Z,65
2016-04-03T12:51:55.733Z,60
2016-04-03T12:52:55.720Z,60
2016-04-03T12:53:55.738Z,60
2016-04-03T12:54:55.787Z,60
2016-04-03T12:55:55.759Z,60
2016-04-03T12:56:55.778Z,60
2016-04-03T12:57:55.828Z,60
2016-04-03T12:58:55.798Z,60
2016-04-03T12:59:55.801Z,60
2016-04-03T13:00:55.804Z,60
2016-04-03T13:01:55.854Z,60
2016-04-03T13:02:55.841Z,60
2016-04-03T13:03:55.827Z,60
2016-04-03T13:04:55.831Z,60
2016-04-03T13:05:55.849Z,60
2016-04-03T13:06:55.867Z,55
2016-04-03T13:07:55.886Z,55
2016-04-03T13:08:55.888Z,60
2016-04-03T13:09:55.891Z,60
2016-04-03T13:10:55.909Z,60
2016-04-03T13:11:55.944Z,55
2016-04-03T13:12:55.930Z,55
2016-04-03T13:13:55.933Z,55
2016-04-03T13:14:55.936Z,55
2016-04-03T13:15:55.954Z,55
2016-04-03T13:16:55.941Z,55
2016-04-03T13:17:55.960Z,55
2016-04-03T13:18:55.962Z,55
2016-04-03T13:19:55.980Z,55
2016-04-03T13:20:55.983Z,55
2016-04-03T13:21:56.001Z,55
2016-04-03T13:22:56.003Z,55
2016-04-03T13:23:56.023Z,55
2016-04-03T13:24:56.025Z,55
2016-04-03T13:25:56.028Z,55
2016-04-03T13:26:56.046Z,55
2016-04-03T13:27:56.048Z,55
2016-04-03T13:28:56.067Z,55
2016-04-03T13:29:56.084Z,55
2016-04-03T13:30:56.088Z,55
2016-04-03T13:31:56.090Z,50
2016-04-03T13:32:56.124Z,55
2016-04-03T13:33:56.112Z,55
2016-04-03T13:34:56.145Z,55
2016-04-03T13:35:56.147Z,50
2016-04-03T13:36:56.135Z,55
2016-04-03T13:37:56.185Z,55
2016-04-03T13:38:56.156Z,55
2016-04-03T13:39:56.159Z,55
2016-04-03T13:40:56.178Z,55
2016-04-03T13:41:56.024Z,50
2016-04-03T13:42:56.027Z,55
2016-04-03T13:43:56.185Z,55
2016-04-03T13:44:56.219Z,50
2016-04-03T13:45:56.222Z,50
2016-04-03T13:46:56.240Z,50
2016-04-03T13:47:56.227Z,50
2016-04-03T13:48:56.230Z,50
2016-04-03T13:49:56.248Z,50
2016-04-03T13:50:56.267Z,50
2016-04-03T13:51:56.269Z,50
2016-04-03T13:52:56.272Z,50
2016-04-03T13:53:56.291Z,50
2016-04-03T13:54:56.293Z,50
2016-04-03T13:55:56.296Z,50
2016-04-03T13:56:56.157Z,45
2016-04-03T13:57:56.332Z,45
2016-04-03T13:58:56.351Z,45
2016-04-03T13:59:56.337Z,50
2016-04-03T14:00:56.340Z,50
2016-04-03T14:01:56.358Z,45
2016-04-03T14:02:56.236Z,50
2016-04-03T14:03:56.380Z,45
2016-04-03T14:04:56.397Z,45
2016-04-03T14:05:56.401Z,45
2016-04-03T14:06:56.388Z,45
2016-04-03T14:07:56.422Z,45
2016-04-03T14:08:56.424Z,45
2016-04-03T14:09:56.427Z,45
2016-04-03T14:10:56.430Z,45
2016-04-03T14:11:56.447Z,45
2016-04-03T14:12:56.466Z,45
2016-04-03T14:13:56.469Z,45
2016-04-03T14:14:56.488Z,45
2016-04-03T14:15:56.491Z,45
2016-04-03T14:16:56.494Z,45
2016-04-03T14:17:56.511Z,45
2016-04-03T14:18:56.530Z,45
2016-04-03T14:19:56.548Z,40
2016-04-03T14:20:56.529Z,40
2016-04-03T14:21:56.535Z,40
2016-04-03T14:22:56.555Z,40
2016-04-03T14:23:56.528Z,40
2016-04-03T14:24:56.517Z,40
2016-04-03T14:25:56.541Z,40
2016-04-03T14:26:56.524Z,40
2016-04-03T14:27:56.521Z,40
2016-04-03T14:28:56.519Z,40